createdAt,value
2019-04-03T00:00:01.203Z,53.40
2019-04-03T00:02:27.982Z,53.50
2019-04-03T00:04:54.921Z,53.50
2019-04-03T00:07:21.819Z,53.80
2019-04-03T00:09:48.733Z,54.00
2019-04-03T00:12:15.656Z,54.60
2019-04-03T00:14:43.261Z,55.10
2019-04-03T00:17:09.630Z,55.80
2019-04-03T00:19:36.623Z,55.90
2019-04-03T00:22:03.753Z,56.10
2019-04-03T00:24:30.662Z,56.30
2019-04-03T00:26:57.718Z,56.30
2019-04-03T00:29:26.111Z,55.50
2019-04-03T00:31:53.691Z,56.10
2019-04-03T00:34:19.932Z,56.50
2019-04-03T00:36:46.816Z,56.80
2019-04-03T00:39:14.156Z,56.80
2019-04-03T00:41:41.092Z,56.80
2019-04-03T00:44:08.000Z,57.20
2019-04-03T00:46:34.903Z,57.50
2019-04-03T00:49:01.821Z,57.80
2019-04-03T00:51:28.770Z,57.40
2019-04-03T00:53:55.862Z,57.60
2019-04-03T00:56:22.605Z,57.50
2019-04-03T00:58:49.529Z,57.50
2019-04-03T01:01:16.448Z,57.40
2019-04-03T01:03:43.384Z,57.50
2019-04-03T01:06:10.397Z,57.60
2019-04-03T01:08:37.216Z,57.50
2019-04-03T01:11:04.425Z,58.30
2019-04-03T01:13:31.684Z,58.80
2019-04-03T01:15:58.244Z,58.80
2019-04-03T01:18:25.193Z,58.90
2019-04-03T01:20:52.087Z,58.40
2019-04-03T01:23:19.005Z,58.60
2019-04-03T01:25:45.952Z,58.70
2019-04-03T01:28:12.971Z,59.00
2019-04-03T01:30:40.068Z,57.70
2019-04-03T01:33:07.007Z,57.30
2019-04-03T01:35:33.917Z,60.00
2019-04-03T01:38:00.824Z,62.60
2019-04-03T01:40:27.735Z,65.90
2019-04-03T01:42:54.654Z,71.00
2019-04-03T01:45:21.756Z,74.50
2019-04-03T01:47:48.690Z,71.70
2019-04-03T01:50:15.428Z,69.20
2019-04-03T01:52:42.364Z,66.40
2019-04-03T01:55:09.316Z,69.90
2019-04-03T01:57:36.679Z,68.40
2019-04-03T02:00:03.616Z,67.70
2019-04-03T02:02:30.680Z,69.00
2019-04-03T02:04:57.622Z,71.10
2019-04-03T02:07:24.472Z,71.20
2019-04-03T02:09:51.401Z,69.80
2019-04-03T02:12:19.809Z,69.90
2019-04-03T02:14:45.314Z,67.30
2019-04-03T02:17:12.466Z,66.60
2019-04-03T02:19:39.319Z,64.40
2019-04-03T02:22:06.012Z,67.30
2019-04-03T02:24:32.945Z,67.30
2019-04-03T02:27:00.896Z,66.70
2019-04-03T02:29:26.886Z,67.60
2019-04-03T02:31:55.142Z,67.20
2019-04-03T02:34:22.033Z,67.30
2019-04-03T02:36:48.938Z,67.50
2019-04-03T02:39:16.116Z,68.30
2019-04-03T02:41:42.977Z,64.90
2019-04-03T02:44:09.916Z,66.60
2019-04-03T02:46:36.835Z,68.50
2019-04-03T02:49:03.764Z,67.00
2019-04-03T02:51:30.772Z,67.50
2019-04-03T02:54:01.600Z,68.10
2019-04-03T02:56:24.868Z,68.60
2019-04-03T02:58:53.945Z,70.20
2019-04-03T03:01:18.674Z,71.00
2019-04-03T03:03:48.546Z,71.70
2019-04-03T03:06:12.660Z,73.60
2019-04-03T03:08:41.669Z,73.50
2019-04-03T03:11:07.113Z,73.30
2019-04-03T03:13:35.108Z,74.70
2019-04-03T03:16:00.977Z,76.20
2019-04-03T03:18:28.541Z,76.70
2019-04-03T03:20:55.097Z,77.40
2019-04-03T03:23:23.107Z,77.10
2019-04-03T03:25:49.009Z,77.50
2019-04-03T03:28:15.601Z,78.80
2019-04-03T03:30:50.679Z,77.00
2019-04-03T03:33:28.386Z,77.70
2019-04-03T03:35:41.515Z,76.80
2019-04-03T03:38:04.656Z,79.70
2019-04-03T03:40:30.648Z,78.90
2019-04-03T03:42:57.566Z,79.50
2019-04-03T03:45:24.965Z,78.80
2019-04-03T03:47:51.431Z,79.50
2019-04-03T03:50:24.505Z,77.60
2019-04-03T03:52:49.739Z,80.00
2019-04-03T03:55:16.703Z,79.30
2019-04-03T03:57:43.854Z,79.40
2019-04-03T04:00:10.489Z,81.50
2019-04-03T04:02:38.030Z,81.70
2019-04-03T04:05:08.796Z,83.00
2019-04-03T04:07:33.963Z,81.80
2019-04-03T04:09:58.828Z,84.10
2019-04-03T04:12:25.423Z,85.10
2019-04-03T04:14:55.338Z,84.30
2019-04-03T04:17:19.580Z,84.10
2019-04-03T04:19:46.332Z,83.40
2019-04-03T04:22:15.569Z,85.20
2019-04-03T04:24:40.383Z,84.10
2019-04-03T04:27:07.171Z,85.40
2019-04-03T04:29:34.112Z,84.50
2019-04-03T04:32:01.023Z,85.10
2019-04-03T04:34:29.317Z,85.30
2019-04-03T04:36:56.140Z,83.20
2019-04-03T04:39:23.003Z,84.40
2019-04-03T04:41:50.122Z,83.10
2019-04-03T04:44:16.852Z,83.90
2019-04-03T04:46:44.682Z,84.70
2019-04-03T04:49:10.677Z,85.80
2019-04-03T04:51:37.601Z,85.60
2019-04-03T04:54:04.509Z,87.50
2019-04-03T04:56:31.451Z,89.00
2019-04-03T04:58:58.388Z,89.20
2019-04-03T05:01:25.375Z,90.30
2019-04-03T05:03:54.119Z,90.80
2019-04-03T05:06:19.187Z,91.20
2019-04-03T05:08:46.101Z,91.20
2019-04-03T05:11:13.149Z,91.20
2019-04-03T05:13:40.163Z,91.00
2019-04-03T05:16:07.121Z,91.00
2019-04-03T05:18:34.258Z,91.10
2019-04-03T05:21:00.973Z,91.30
2019-04-03T05:23:27.905Z,91.50
2019-04-03T05:25:54.832Z,91.10
2019-04-03T05:28:24.582Z,91.40
2019-04-03T05:30:48.725Z,90.70
2019-04-03T05:33:15.684Z,91.20
2019-04-03T05:35:46.242Z,91.10
2019-04-03T05:38:11.234Z,90.90
2019-04-03T05:40:37.945Z,91.00
2019-04-03T05:43:04.917Z,90.20
2019-04-03T05:45:34.685Z,91.10
2019-04-03T05:47:58.745Z,91.20
2019-04-03T05:50:26.460Z,91.10
2019-04-03T05:52:52.726Z,90.70
2019-04-03T05:55:19.507Z,90.70
2019-04-03T05:57:46.700Z,91.10
2019-04-03T06:00:13.611Z,91.40
2019-04-03T06:02:40.501Z,91.30
2019-04-03T06:05:07.570Z,91.30
2019-04-03T06:07:34.225Z,91.50
2019-04-03T06:10:01.132Z,91.70
2019-04-03T06:12:28.077Z,92.00
2019-04-03T06:14:54.998Z,92.10
2019-04-03T06:17:21.927Z,92.10
2019-04-03T06:19:48.885Z,92.20
2019-04-03T06:22:17.081Z,92.80
2019-04-03T06:24:42.742Z,93.10
2019-04-03T06:27:10.525Z,92.80
2019-04-03T06:29:36.607Z,92.90
2019-04-03T06:32:05.761Z,92.60
2019-04-03T06:34:30.521Z,92.90
2019-04-03T06:36:57.911Z,93.00
2019-04-03T06:39:30.374Z,92.80
2019-04-03T06:41:51.597Z,92.40
2019-04-03T06:44:18.540Z,92.80
2019-04-03T06:46:45.549Z,92.50
2019-04-03T06:49:12.393Z,92.80
2019-04-03T06:51:39.296Z,92.50
2019-04-03T06:54:08.117Z,92.30
2019-04-03T06:56:33.145Z,91.70
2019-04-03T06:59:00.064Z,92.00
2019-04-03T07:01:27.002Z,91.90
2019-04-03T07:03:53.953Z,91.60
2019-04-03T07:06:20.852Z,91.70
2019-04-03T07:08:47.777Z,91.40
2019-04-03T07:11:23.407Z,91.20
2019-04-03T07:13:41.640Z,90.80
2019-04-03T07:16:08.552Z,90.20
2019-04-03T07:18:37.069Z,90.00
2019-04-03T07:21:02.644Z,89.60
2019-04-03T07:23:29.945Z,89.40
2019-04-03T07:25:56.498Z,89.80
2019-04-03T07:28:23.176Z,89.90
2019-04-03T07:30:52.416Z,89.10
2019-04-03T07:33:17.008Z,89.20
2019-04-03T07:35:43.923Z,88.60
2019-04-03T07:38:11.318Z,88.90
2019-04-03T07:40:38.258Z,88.30
2019-04-03T07:43:05.189Z,87.50
2019-04-03T07:45:33.018Z,87.00
2019-04-03T07:47:59.044Z,86.40
2019-04-03T07:50:25.955Z,88.20
2019-04-03T07:52:53.023Z,87.70
2019-04-03T07:55:19.795Z,86.30
2019-04-03T07:57:46.712Z,86.70
2019-04-03T08:00:13.620Z,86.00
2019-04-03T08:02:45.202Z,84.30
2019-04-03T08:05:07.735Z,84.10
2019-04-03T08:07:34.648Z,83.30
2019-04-03T08:10:01.730Z,83.10
2019-04-03T08:12:28.533Z,81.50
2019-04-03T08:14:55.459Z,80.70
2019-04-03T08:17:22.396Z,79.70
2019-04-03T08:19:49.336Z,77.80
2019-04-03T08:22:16.319Z,76.10
2019-04-03T08:24:43.186Z,75.40
2019-04-03T08:27:10.094Z,73.10
2019-04-03T08:29:38.246Z,74.30
2019-04-03T08:32:03.944Z,74.80
2019-04-03T08:34:32.072Z,74.40
2019-04-03T08:36:57.793Z,75.90
2019-04-03T08:39:25.087Z,76.60
2019-04-03T08:41:52.051Z,76.10
2019-04-03T08:44:18.981Z,75.50
2019-04-03T08:46:45.935Z,75.80
2019-04-03T08:49:12.912Z,74.40
2019-04-03T08:51:39.962Z,75.00
2019-04-03T08:54:09.515Z,74.60
2019-04-03T08:56:33.656Z,75.30
2019-04-03T08:59:00.571Z,76.10
2019-04-03T09:01:27.682Z,76.40
2019-04-03T09:03:54.409Z,73.10
2019-04-03T09:06:22.391Z,71.40
2019-04-03T09:08:48.385Z,70.50
2019-04-03T09:11:15.332Z,68.80
2019-04-03T09:13:42.264Z,68.90
2019-04-03T09:16:10.535Z,69.40
2019-04-03T09:18:38.252Z,69.20
2019-04-03T09:21:03.100Z,68.80
2019-04-03T09:23:30.029Z,68.60
2019-04-03T09:25:57.255Z,70.60
2019-04-03T09:28:23.896Z,68.40
2019-04-03T09:30:53.821Z,68.00
2019-04-03T09:33:17.768Z,67.70
2019-04-03T09:35:45.492Z,67.50
2019-04-03T09:38:12.457Z,67.00
2019-04-03T09:40:40.430Z,67.10
2019-04-03T09:43:07.184Z,66.50
2019-04-03T09:45:34.081Z,66.80
2019-04-03T09:48:01.036Z,64.30
2019-04-03T09:50:28.034Z,60.20
2019-04-03T09:52:55.398Z,59.90
2019-04-03T09:55:22.164Z,60.00
2019-04-03T09:57:48.910Z,58.70
2019-04-03T10:00:16.187Z,58.20
2019-04-03T10:02:43.177Z,57.30
2019-04-03T10:05:09.969Z,57.00
2019-04-03T10:07:37.191Z,57.30
2019-04-03T10:10:05.058Z,56.70
2019-04-03T10:12:32.659Z,56.00
2019-04-03T10:15:00.158Z,54.70
2019-04-03T10:17:26.685Z,53.20
2019-04-03T10:19:53.610Z,52.10
2019-04-03T10:22:23.748Z,51.20
2019-04-03T10:24:47.588Z,52.10
2019-04-03T10:27:14.497Z,52.60
2019-04-03T10:29:41.340Z,52.50
2019-04-03T10:32:08.347Z,52.80
2019-04-03T10:34:36.140Z,53.20
2019-04-03T10:37:02.265Z,54.10
2019-04-03T10:39:29.187Z,54.20
2019-04-03T10:41:59.728Z,54.70
2019-04-03T10:44:23.355Z,55.00
2019-04-03T10:46:50.665Z,55.30
2019-04-03T10:49:17.269Z,55.90
2019-04-03T10:51:44.281Z,55.60
2019-04-03T10:54:11.376Z,55.30
2019-04-03T10:56:38.295Z,55.30
2019-04-03T10:59:12.148Z,54.20
2019-04-03T11:01:32.232Z,52.60
2019-04-03T11:03:59.140Z,52.30
2019-04-03T11:06:28.079Z,51.50
2019-04-03T11:08:54.936Z,51.30
2019-04-03T11:11:21.859Z,49.70
2019-04-03T11:13:48.811Z,49.80
2019-04-03T11:16:15.945Z,47.90
2019-04-03T11:18:42.668Z,46.50
2019-04-03T11:21:10.913Z,45.70
2019-04-03T11:23:41.864Z,45.10
2019-04-03T11:26:03.802Z,44.30
2019-04-03T11:28:30.738Z,43.20
2019-04-03T11:31:01.247Z,43.80
2019-04-03T11:33:24.209Z,43.30
2019-04-03T11:35:53.671Z,42.90
2019-04-03T11:38:26.282Z,42.50
2019-04-03T11:40:45.389Z,42.40
2019-04-03T11:43:13.357Z,40.90
2019-04-03T11:45:40.309Z,38.80
2019-04-03T11:48:07.225Z,38.90
2019-04-03T11:50:34.607Z,39.20
2019-04-03T11:53:02.760Z,39.80
2019-04-03T11:55:28.002Z,41.70
2019-04-03T11:57:55.060Z,41.10
2019-04-03T12:00:27.245Z,41.30
2019-04-03T12:02:54.405Z,40.20
2019-04-03T12:05:21.623Z,39.50
2019-04-03T12:07:48.023Z,38.30
2019-04-03T12:10:14.948Z,38.80
2019-04-03T12:12:42.743Z,38.20
2019-04-03T12:15:08.816Z,37.70
2019-04-03T12:17:35.766Z,37.70
2019-04-03T12:20:03.194Z,38.90
2019-04-03T12:22:29.855Z,39.00
2019-04-03T12:24:57.136Z,40.60
2019-04-03T12:27:24.150Z,40.00
2019-04-03T12:29:51.989Z,39.20
2019-04-03T12:32:17.599Z,39.40
2019-04-03T12:34:44.556Z,38.80
2019-04-03T12:37:11.581Z,40.10
2019-04-03T12:39:38.764Z,39.60
2019-04-03T12:42:08.324Z,39.50
2019-04-03T12:44:33.200Z,39.80
2019-04-03T12:47:00.107Z,39.80
2019-04-03T12:49:27.892Z,40.20
2019-04-03T12:51:54.631Z,41.30
2019-04-03T12:54:21.928Z,47.40
2019-04-03T12:56:48.495Z,50.10
2019-04-03T12:59:15.412Z,54.00
2019-04-03T13:01:42.473Z,58.40
2019-04-03T13:04:09.413Z,59.60
2019-04-03T13:06:36.319Z,61.20
2019-04-03T13:09:06.435Z,63.10
2019-04-03T13:11:33.962Z,64.40
2019-04-03T13:14:00.374Z,64.00
2019-04-03T13:16:32.196Z,62.80
2019-04-03T13:18:59.008Z,62.20
2019-04-03T13:21:25.957Z,60.60
2019-04-03T13:23:52.957Z,63.20
2019-04-03T13:26:19.816Z,63.60
2019-04-03T13:28:46.766Z,62.60
2019-04-03T13:31:14.954Z,60.00
2019-04-03T13:33:40.913Z,60.00
2019-04-03T13:36:07.497Z,59.30
2019-04-03T13:38:34.837Z,58.10
2019-04-03T13:41:04.202Z,58.40
2019-04-03T13:43:28.465Z,58.50
2019-04-03T13:45:56.845Z,58.00
2019-04-03T13:48:23.969Z,57.00
2019-04-03T13:50:53.978Z,57.30
2019-04-03T13:53:19.699Z,58.20
2019-04-03T13:55:44.491Z,58.50
2019-04-03T13:58:11.369Z,58.50
2019-04-03T14:00:38.312Z,58.90
2019-04-03T14:03:05.239Z,58.90
2019-04-03T14:05:33.269Z,59.20
2019-04-03T14:07:59.052Z,59.60
2019-04-03T14:10:26.990Z,60.80
2019-04-03T14:12:53.068Z,60.60
2019-04-03T14:15:21.075Z,61.70
2019-04-03T14:17:55.239Z,61.40
2019-04-03T14:20:14.146Z,61.10
2019-04-03T14:22:40.728Z,60.20
2019-04-03T14:25:18.153Z,60.00
2019-04-03T14:27:35.287Z,60.50
2019-04-03T14:30:02.214Z,60.70
2019-04-03T14:32:29.159Z,61.80
2019-04-03T14:35:05.192Z,63.80
2019-04-03T14:37:25.934Z,62.50
2019-04-03T14:39:49.957Z,65.50
2019-04-03T14:42:16.884Z,65.40
2019-04-03T14:44:45.671Z,65.00
2019-04-03T14:47:11.092Z,64.10
2019-04-03T14:49:38.321Z,66.30
2019-04-03T14:52:05.260Z,66.60
2019-04-03T14:54:32.565Z,66.00
2019-04-03T14:56:59.271Z,64.90
2019-04-03T14:59:26.192Z,64.90
2019-04-03T15:01:53.193Z,65.10
2019-04-03T15:04:20.117Z,64.10
2019-04-03T15:06:47.479Z,65.50
2019-04-03T15:09:14.741Z,67.30
2019-04-03T15:11:40.920Z,69.00
2019-04-03T15:14:07.883Z,70.90
2019-04-03T15:16:35.236Z,70.40
2019-04-03T15:19:02.610Z,69.80
2019-04-03T15:21:28.647Z,71.10
2019-04-03T15:23:55.612Z,71.00
2019-04-03T15:26:23.099Z,72.10
2019-04-03T15:28:49.770Z,73.20
2019-04-03T15:31:16.420Z,72.30
2019-04-03T15:33:43.626Z,71.70
2019-04-03T15:36:10.250Z,72.10
2019-04-03T15:38:37.382Z,72.90
2019-04-03T15:41:04.524Z,75.10
2019-04-03T15:43:31.481Z,75.60
2019-04-03T15:45:58.541Z,77.50
2019-04-03T15:48:25.493Z,77.90
2019-04-03T15:50:52.183Z,77.00
2019-04-03T15:53:19.159Z,76.30
2019-04-03T15:55:45.960Z,77.90
2019-04-03T15:58:12.871Z,78.90
2019-04-03T16:00:42.625Z,78.50
2019-04-03T16:03:07.117Z,80.20
2019-04-03T16:05:36.327Z,80.20
2019-04-03T16:08:00.796Z,80.90
2019-04-03T16:10:28.040Z,80.80
2019-04-03T16:12:54.628Z,80.20
2019-04-03T16:15:22.688Z,80.30
2019-04-03T16:17:48.608Z,81.20
2019-04-03T16:20:17.200Z,81.90
2019-04-03T16:22:42.452Z,84.90
2019-04-03T16:25:09.310Z,85.50
2019-04-03T16:27:36.401Z,86.50
2019-04-03T16:30:07.007Z,88.80
2019-04-03T16:32:31.599Z,90.00
2019-04-03T16:34:58.163Z,90.40
2019-04-03T16:37:25.525Z,90.90
2019-04-03T16:39:52.482Z,93.20
2019-04-03T16:42:19.118Z,92.20
2019-04-03T16:44:45.900Z,92.70
2019-04-03T16:47:14.131Z,91.80
2019-04-03T16:49:42.128Z,92.60
2019-04-03T16:52:09.317Z,93.30
2019-04-03T16:54:36.346Z,92.10
2019-04-03T16:57:03.719Z,93.70
2019-04-03T16:59:30.067Z,92.70
2019-04-03T17:01:56.883Z,91.90
2019-04-03T17:04:27.396Z,92.70
2019-04-03T17:06:50.700Z,92.40
2019-04-03T17:09:17.616Z,92.20
2019-04-03T17:11:48.422Z,90.80
2019-04-03T17:14:12.065Z,91.20
2019-04-03T17:16:38.630Z,90.50
2019-04-03T17:19:05.364Z,90.70
2019-04-03T17:21:36.931Z,90.80
2019-04-03T17:23:59.273Z,90.80
2019-04-03T17:26:26.325Z,91.60
2019-04-03T17:29:02.972Z,91.70
2019-04-03T17:31:23.366Z,92.20
2019-04-03T17:33:47.327Z,91.90
2019-04-03T17:36:14.117Z,92.60
2019-04-03T17:38:41.331Z,91.70
2019-04-03T17:41:08.000Z,91.30
2019-04-03T17:43:34.940Z,91.10
2019-04-03T17:46:01.847Z,92.00
2019-04-03T17:48:28.776Z,91.10
2019-04-03T17:50:57.060Z,90.90
2019-04-03T17:53:24.059Z,91.00
2019-04-03T17:55:50.992Z,90.70
2019-04-03T17:58:17.963Z,90.80
2019-04-03T18:00:44.880Z,91.40
2019-04-03T18:03:11.797Z,90.60
2019-04-03T18:05:38.741Z,90.90
2019-04-03T18:08:05.675Z,91.60
2019-04-03T18:10:32.620Z,92.30
2019-04-03T18:12:59.568Z,92.00
2019-04-03T18:15:27.525Z,91.50
2019-04-03T18:17:53.432Z,91.20
2019-04-03T18:20:20.377Z,91.70
2019-04-03T18:22:50.413Z,91.20
2019-04-03T18:25:14.264Z,91.40
2019-04-03T18:27:41.200Z,91.20
2019-04-03T18:30:11.129Z,91.40
2019-04-03T18:32:35.092Z,91.80
2019-04-03T18:35:02.045Z,90.80
2019-04-03T18:37:29.047Z,90.90
2019-04-03T18:39:55.949Z,90.80
2019-04-03T18:42:22.953Z,90.50
2019-04-03T18:44:49.866Z,90.20
2019-04-03T18:47:16.771Z,90.60
2019-04-03T18:49:43.888Z,90.30
2019-04-03T18:52:11.497Z,90.60
2019-04-03T18:54:38.437Z,90.80
2019-04-03T18:57:05.379Z,90.80
2019-04-03T18:59:32.296Z,90.30
2019-04-03T19:01:59.208Z,90.80
2019-04-03T19:04:26.152Z,91.10
2019-04-03T19:06:53.067Z,91.20
2019-04-03T19:09:21.258Z,91.00
2019-04-03T19:11:46.900Z,91.30
2019-04-03T19:14:21.429Z,91.30
2019-04-03T19:16:45.197Z,91.60
2019-04-03T19:19:08.436Z,91.00
2019-04-03T19:21:34.752Z,91.50
2019-04-03T19:24:01.683Z,91.60
2019-04-03T19:26:30.065Z,90.90
2019-04-03T19:28:55.549Z,90.70
2019-04-03T19:31:22.488Z,90.80
2019-04-03T19:33:49.458Z,91.20
2019-04-03T19:36:16.342Z,90.70
2019-04-03T19:38:43.268Z,91.10
2019-04-03T19:41:11.922Z,90.80
2019-04-03T19:43:37.291Z,91.50
2019-04-03T19:46:04.204Z,91.20
2019-04-03T19:48:31.171Z,90.50
2019-04-03T19:50:58.055Z,90.30
2019-04-03T19:53:26.496Z,90.30
2019-04-03T19:55:54.760Z,90.60
2019-04-03T19:58:20.338Z,90.70
2019-04-03T20:00:47.584Z,91.60
2019-04-03T20:03:14.785Z,90.70
2019-04-03T20:05:43.752Z,90.90
2019-04-03T20:08:08.347Z,90.80
2019-04-03T20:10:35.272Z,91.70
2019-04-03T20:13:02.180Z,91.60
2019-04-03T20:15:29.107Z,90.60
2019-04-03T20:17:56.023Z,91.00
2019-04-03T20:20:22.946Z,90.80
2019-04-03T20:22:49.865Z,90.80
2019-04-03T20:25:16.784Z,90.70
2019-04-03T20:27:47.025Z,90.40
2019-04-03T20:30:11.037Z,90.80
2019-04-03T20:32:39.946Z,90.90
2019-04-03T20:35:05.079Z,91.10
2019-04-03T20:37:31.999Z,90.90
2019-04-03T20:40:00.071Z,90.60
2019-04-03T20:42:26.124Z,90.30
2019-04-03T20:44:53.048Z,90.20
2019-04-03T20:47:19.965Z,90.70
2019-04-03T20:49:46.883Z,91.10
2019-04-03T20:52:13.817Z,91.30
2019-04-03T20:54:41.935Z,91.00
2019-04-03T20:57:08.841Z,91.00
2019-04-03T20:59:35.781Z,90.70
2019-04-03T21:02:02.754Z,90.50
2019-04-03T21:04:29.677Z,89.20
2019-04-03T21:06:56.643Z,90.60
2019-04-03T21:09:23.600Z,90.10
2019-04-03T21:11:50.512Z,90.00
2019-04-03T21:14:17.431Z,90.10
2019-04-03T21:16:47.890Z,89.30
2019-04-03T21:19:11.366Z,89.80
2019-04-03T21:21:38.298Z,90.40
2019-04-03T21:24:05.237Z,89.70
2019-04-03T21:26:32.160Z,90.30
2019-04-03T21:28:59.091Z,90.20
2019-04-03T21:31:26.569Z,90.20
2019-04-03T21:33:52.928Z,89.20
2019-04-03T21:36:19.896Z,89.80
2019-04-03T21:38:46.994Z,89.40
2019-04-03T21:41:14.157Z,90.30
2019-04-03T21:43:41.075Z,90.60
2019-04-03T21:46:08.972Z,90.80
2019-04-03T21:48:35.044Z,90.70
2019-04-03T21:51:01.988Z,90.40
2019-04-03T21:53:29.277Z,91.00
2019-04-03T21:55:57.569Z,90.70
2019-04-03T21:58:24.630Z,90.70
2019-04-03T22:01:15.176Z,90.30
2019-04-03T22:03:41.609Z,90.10
2019-04-03T22:06:08.513Z,90.00
2019-04-03T22:08:35.477Z,90.00
2019-04-03T22:11:04.602Z,90.40
2019-04-03T22:13:29.396Z,90.00
2019-04-03T22:15:56.328Z,89.50
2019-04-03T22:18:23.765Z,90.00
2019-04-03T22:20:50.248Z,89.90
2019-04-03T22:23:17.204Z,88.40
2019-04-03T22:25:44.112Z,88.30
2019-04-03T22:28:13.206Z,87.50
2019-04-03T22:30:38.078Z,87.30
2019-04-03T22:33:04.953Z,86.00
2019-04-03T22:35:32.141Z,88.00
2019-04-03T22:37:58.829Z,88.90
2019-04-03T22:40:25.775Z,90.10
2019-04-03T22:42:52.716Z,88.70
2019-04-03T22:45:20.086Z,88.30
2019-04-03T22:47:47.698Z,87.70
2019-04-03T22:50:13.538Z,88.20
2019-04-03T22:52:40.505Z,88.60
2019-04-03T22:55:07.452Z,89.00
2019-04-03T22:57:34.641Z,89.60
2019-04-03T23:00:01.626Z,89.10
2019-04-03T23:02:29.868Z,88.80
2019-04-03T23:04:55.475Z,89.10
2019-04-03T23:07:22.417Z,89.70
2019-04-03T23:09:49.351Z,89.00
2019-04-03T23:12:16.268Z,88.70
2019-04-03T23:14:43.196Z,89.40
2019-04-03T23:17:10.117Z,89.30
2019-04-03T23:19:37.043Z,88.10
2019-04-03T23:22:03.976Z,88.50
2019-04-03T23:24:30.893Z,89.70
2019-04-03T23:26:58.058Z,89.70
2019-04-03T23:29:25.134Z,89.70
2019-04-03T23:31:52.025Z,89.10
2019-04-03T23:34:19.624Z,88.70
2019-04-03T23:36:45.928Z,88.40
2019-04-03T23:39:12.861Z,88.20
2019-04-03T23:41:39.787Z,88.10
2019-04-03T23:44:06.863Z,87.90
2019-04-03T23:46:33.873Z,88.10
2019-04-03T23:49:00.812Z,88.30
2019-04-03T23:51:28.130Z,87.40
2019-04-03T23:53:54.652Z,88.00
2019-04-03T23:56:21.575Z,88.40
2019-04-03T23:58:49.880Z,88.60
